Terminal Aerodrome Forecast
Issued by NWS Detroit/Pontiac, MI

Home | Current Version | Previous Version | Text Only | Print | Product List | Glossary On
Versions: 1 2 3 4 5 6 7 8 9 10 11 12 13 14 15
000
FTUS43 KDTX 272126 AAA
TAFFNT
TAF AMD
KFNT 272126Z 2721/2818 29012KT P6SM SCT060 BKN250
      TEMPO 2722/2724 31015G25KT 3SM TSRA OVC045CB
     FM280300 04006KT P6SM SCT060 BKN100=

USA.gov is the U.S. government's official web portal to all federal, state and local government web resources and services.